createdAt,value
2019-04-11T09:07:29.608Z,93.20
2019-04-11T09:10:28.269Z,95.00
2019-04-11T09:13:02.923Z,92.20
2019-04-11T09:15:49.010Z,90.40
2019-04-11T09:18:17.760Z,87.10
2019-04-11T09:21:20.349Z,87.10
2019-04-11T09:23:48.109Z,86.40
2019-04-11T09:26:36.055Z,87.90
2019-04-11T09:29:04.016Z,86.20
2019-04-11T09:32:22.923Z,83.30
2019-04-11T09:34:57.642Z,86.70
2019-04-11T09:37:29.532Z,81.20
2019-04-11T09:40:17.354Z,79.70
2019-04-11T09:43:04.554Z,76.30
2019-04-11T09:45:57.712Z,76.80
2019-04-11T09:48:42.238Z,89.70
2019-04-11T09:51:33.767Z,84.80
2019-04-11T09:54:24.120Z,77.90
2019-04-11T09:57:26.826Z,74.40
2019-04-11T10:00:14.380Z,75.20
2019-04-11T10:03:01.720Z,69.00
2019-04-11T10:05:34.211Z,71.90
2019-04-11T10:08:10.728Z,78.80
2019-04-11T10:13:55.308Z,92.80
2019-04-11T10:28:19.644Z,94.50
2019-04-11T10:39:35.612Z,98.50
2019-04-11T10:42:06.457Z,83.30
2019-04-11T10:44:54.058Z,53.90
2019-04-11T10:47:23.458Z,53.40
2019-04-11T10:50:19.938Z,50.90
2019-04-11T10:52:53.092Z,51.50
2019-04-11T10:55:25.309Z,50.10
2019-04-11T10:58:04.782Z,51.10
2019-04-11T11:00:47.703Z,52.10
2019-04-11T11:05:58.189Z,98.70
2019-04-11T11:08:51.563Z,92.90
2019-04-11T11:14:10.152Z,52.60
2019-04-11T11:16:45.477Z,52.40
2019-04-11T11:25:31.309Z,97.50
2019-04-11T11:28:00.247Z,55.50
2019-04-11T11:30:47.401Z,72.70
2019-04-11T11:33:16.248Z,55.60
2019-04-11T11:36:04.588Z,48.50
2019-04-11T11:38:35.736Z,54.10
2019-04-11T11:41:28.890Z,68.10
2019-04-11T11:43:57.104Z,60.90
2019-04-11T11:46:44.632Z,47.50
2019-04-11T11:49:41.771Z,48.00
2019-04-11T11:52:13.102Z,46.40
2019-04-11T11:54:48.063Z,55.70
2019-04-11T11:57:23.642Z,49.60
2019-04-11T12:00:07.205Z,47.80
2019-04-11T12:02:39.057Z,46.10
2019-04-11T12:05:26.979Z,46.80
2019-04-11T12:08:04.408Z,44.70
2019-04-11T12:10:51.306Z,57.40
2019-04-11T12:13:45.512Z,56.30
2019-04-11T12:16:21.312Z,64.90
2019-04-11T12:19:15.861Z,58.00
2019-04-11T12:21:43.252Z,51.70
2019-04-11T12:24:20.727Z,45.20
2019-04-11T12:27:11.519Z,44.60
2019-04-11T12:29:48.918Z,44.40
2019-04-11T12:32:20.191Z,44.70
2019-04-11T12:34:57.734Z,45.80
2019-04-11T12:37:31.610Z,51.00
2019-04-11T12:40:17.512Z,44.00
2019-04-11T12:42:45.165Z,46.00
2019-04-11T12:45:31.264Z,44.90
2019-04-11T12:48:00.435Z,45.80
2019-04-11T12:50:46.646Z,44.00
2019-04-11T12:53:16.321Z,41.50
2019-04-11T12:56:13.037Z,42.50
2019-04-11T12:59:03.143Z,42.70
2019-04-11T13:01:53.329Z,41.60
2019-04-11T13:04:29.052Z,41.70
2019-04-11T13:07:04.212Z,40.60
2019-04-11T13:09:54.147Z,41.20
2019-04-11T13:12:41.339Z,43.70
2019-04-11T13:15:34.352Z,44.00
2019-04-11T13:18:23.192Z,43.30
2019-04-11T13:21:10.345Z,42.30
2019-04-11T13:23:53.925Z,46.60
2019-04-11T13:26:41.057Z,57.10
2019-04-11T13:29:18.525Z,82.10
2019-04-11T13:32:11.726Z,82.50
2019-04-11T13:34:40.070Z,79.20
2019-04-11T13:37:33.099Z,44.40
2019-04-11T13:40:23.290Z,42.80
2019-04-11T13:43:25.887Z,42.90
2019-04-11T13:46:01.797Z,42.90
2019-04-11T13:48:47.401Z,40.90
2019-04-11T13:51:24.700Z,40.70
2019-04-11T13:54:20.983Z,39.10
2019-04-11T13:57:03.675Z,39.70
2019-04-11T13:59:49.317Z,41.70
2019-04-11T14:02:24.089Z,42.60
2019-04-11T14:04:53.265Z,44.90
2019-04-11T14:07:23.423Z,42.80
2019-04-11T14:09:52.082Z,42.50
2019-04-11T14:12:19.712Z,42.80
2019-04-11T14:14:51.940Z,43.60
2019-04-11T14:17:41.626Z,72.20
2019-04-11T14:20:29.718Z,81.50
2019-04-11T14:23:15.181Z,66.50
2019-04-11T14:26:01.487Z,77.60
2019-04-11T14:29:06.754Z,78.10
2019-04-11T14:32:06.286Z,44.70
2019-04-11T14:35:01.040Z,42.80
2019-04-11T14:37:54.177Z,43.80
2019-04-11T14:40:42.068Z,41.10
2019-04-11T14:43:27.733Z,40.10
2019-04-11T14:46:23.724Z,42.90
2019-04-11T14:49:05.767Z,42.40
2019-04-11T14:51:59.072Z,42.30
2019-04-11T14:54:34.488Z,42.90
2019-04-11T14:57:22.810Z,70.50
2019-04-11T14:59:54.678Z,85.90
2019-04-11T15:02:56.818Z,84.90
2019-04-11T15:05:49.988Z,82.40
2019-04-11T15:08:26.847Z,75.00
2019-04-11T15:11:18.465Z,81.10
2019-04-11T15:21:57.631Z,93.50
2019-04-11T15:24:25.303Z,91.30
2019-04-11T15:27:12.484Z,84.90
2019-04-11T15:29:45.545Z,82.80
2019-04-11T15:32:33.416Z,76.80
2019-04-11T15:35:04.034Z,76.50
2019-04-11T15:43:31.549Z,94.30
2019-04-11T15:46:27.979Z,92.00
2019-04-11T15:49:21.285Z,49.90
2019-04-11T15:54:40.810Z,93.40
2019-04-11T15:57:42.884Z,91.60
2019-04-11T16:00:30.476Z,90.50
2019-04-11T16:03:09.312Z,91.30
2019-04-11T16:06:15.357Z,48.60
2019-04-11T16:08:54.379Z,48.20
2019-04-11T16:11:53.589Z,48.80
2019-04-11T16:14:47.390Z,50.10
2019-04-11T16:33:39.829Z,97.10
2019-04-11T16:36:11.351Z,93.50
2019-04-11T16:39:26.806Z,90.90
2019-04-11T16:42:02.783Z,84.90
2019-04-11T17:24:58.805Z,75.00
2019-04-11T17:27:26.441Z,82.70
2019-04-11T17:29:55.390Z,71.30
2019-04-11T17:32:23.633Z,76.50
2019-04-11T17:34:52.835Z,77.30
2019-04-11T17:37:20.477Z,77.70
2019-04-11T17:39:48.102Z,80.50
2019-04-11T17:42:15.819Z,83.30
2019-04-11T17:44:43.426Z,90.30
2019-04-11T17:47:11.081Z,95.50
2019-04-11T17:49:38.808Z,96.70
2019-04-11T17:52:06.585Z,96.90
2019-04-11T17:54:34.234Z,97.60
2019-04-11T20:52:42.559Z,99.90
2019-04-11T20:55:10.446Z,99.90
2019-04-11T21:02:37.195Z,99.90
2019-04-11T21:05:05.054Z,99.90
2019-04-11T21:07:32.745Z,99.90
2019-04-11T21:10:03.557Z,99.90
2019-04-11T21:12:29.842Z,99.90
2019-04-11T21:14:57.467Z,99.90
2019-04-11T21:17:25.106Z,99.90
2019-04-11T21:19:53.224Z,99.90
2019-04-11T21:22:24.027Z,99.90
2019-04-11T21:24:50.891Z,99.90
